Time,TemperatureF,DewpointF,PressureIn,WindDirection,WindDirectionDegrees,WindSpeedMPH,WindSpeedGustMPH,Humidity,HourlyPrecipIn,Conditions,Clouds,dailyrainin,SoftwareType,DateUTC
2013-05-16 00:05:00,67.1,60.0,29.76,East,89,0.0,0.0,78,0.00,,,0.00,weatherlink.com 1.10,2013-05-16 04:05:00,
2013-05-16 00:20:00,65.9,60.0,29.76,East,96,1.0,2.0,82,0.00,,,0.00,weatherlink.com 1.10,2013-05-16 04:20:00,
2013-05-16 00:35:00,65.8,60.0,29.76,SSW,193,0.0,2.0,81,0.00,,,0.00,weatherlink.com 1.10,2013-05-16 04:35:00,
2013-05-16 00:50:00,65.9,60.0,29.75,SSW,197,0.0,1.0,82,0.00,,,0.00,weatherlink.com 1.10,2013-05-16 04:50:00,
2013-05-16 01:05:00,65.4,60.0,29.75,SSW,197,0.0,0.0,82,0.00,,,0.00,weatherlink.com 1.10,2013-05-16 05:05:00,
2013-05-16 01:20:00,64.7,60.0,29.75,SSE,158,0.0,0.0,85,0.00,,,0.00,weatherlink.com 1.10,2013-05-16 05:20:00,
2013-05-16 01:35:00,64.5,60.0,29.76,SSE,159,0.0,0.0,84,0.00,,,0.00,weatherlink.com 1.10,2013-05-16 05:35:00,
2013-05-16 01:50:00,64.1,60.0,29.76,SSE,159,0.0,0.0,85,0.00,,,0.00,weatherlink.com 1.10,2013-05-16 05:50:00,
2013-05-16 02:05:00,63.9,60.0,29.76,SW,214,0.0,0.0,86,0.00,,,0.00,weatherlink.com 1.10,2013-05-16 06:05:00,
2013-05-16 02:20:00,64.0,60.0,29.75,SW,214,0.0,0.0,88,0.00,,,0.00,weatherlink.com 1.10,2013-05-16 06:20:00,
2013-05-16 02:36:00,63.8,61.0,29.75,East,101,2.0,3.0,89,0.07,,,0.07,weatherlink.com 1.10,2013-05-16 06:36:00,
2013-05-16 02:50:00,63.4,61.0,29.75,NW,313,0.0,1.0,91,0.07,,,0.07,weatherlink.com 1.10,2013-05-16 06:50:00,
2013-05-16 03:05:00,62.9,61.0,29.76,SE,134,1.0,2.0,92,0.07,,,0.07,weatherlink.com 1.10,2013-05-16 07:05:00,
2013-05-16 03:20:00,63.0,61.0,29.77,WNW,295,5.0,6.0,92,0.15,,,0.15,weatherlink.com 1.10,2013-05-16 07:20:00,
2013-05-16 03:35:00,63.5,60.0,29.77,West,272,1.0,3.0,89,0.10,,,0.17,weatherlink.com 1.10,2013-05-16 07:35:00,
2013-05-16 03:50:00,63.0,60.0,29.76,WSW,246,0.0,2.0,90,0.13,,,0.20,weatherlink.com 1.10,2013-05-16 07:50:00,
2013-05-16 04:05:00,63.6,59.0,29.78,West,262,4.0,8.0,86,0.13,,,0.20,weatherlink.com 1.10,2013-05-16 08:05:00,
2013-05-16 04:20:00,63.5,60.0,29.77,WNW,291,1.0,7.0,87,0.07,,,0.22,weatherlink.com 1.10,2013-05-16 08:20:00,
2013-05-16 04:35:00,63.2,60.0,29.79,WNW,294,2.0,7.0,89,0.15,,,0.32,weatherlink.com 1.10,2013-05-16 08:35:00,
2013-05-16 04:50:00,62.9,60.0,29.79,West,277,2.0,7.0,91,0.14,,,0.34,weatherlink.com 1.10,2013-05-16 08:50:00,
2013-05-16 05:05:00,63.2,61.0,29.79,WSW,251,2.0,5.0,92,0.15,,,0.35,weatherlink.com 1.10,2013-05-16 09:05:00,
2013-05-16 05:21:00,63.8,61.0,29.79,SW,214,1.0,3.0,91,0.13,,,0.35,weatherlink.com 1.10,2013-05-16 09:21:00,
2013-05-16 05:35:00,63.8,61.0,29.79,WSW,257,0.0,1.0,90,0.03,,,0.35,weatherlink.com 1.10,2013-05-16 09:35:00,
2013-05-16 05:50:00,64.0,61.0,29.79,WSW,249,2.0,4.0,90,0.01,,,0.35,weatherlink.com 1.10,2013-05-16 09:50:00,
2013-05-16 06:05:00,63.9,61.0,29.79,West,281,3.0,5.0,90,0.00,,,0.35,weatherlink.com 1.10,2013-05-16 10:05:00,
2013-05-16 06:20:00,63.3,61.0,29.79,WNW,287,1.0,3.0,91,0.00,,,0.35,weatherlink.com 1.10,2013-05-16 10:20:00,
2013-05-16 06:35:00,63.3,61.0,29.80,WSW,250,1.0,4.0,92,0.00,,,0.35,weatherlink.com 1.10,2013-05-16 10:35:00,
2013-05-16 06:50:00,63.3,61.0,29.81,West,268,2.0,3.0,92,0.00,,,0.35,weatherlink.com 1.10,2013-05-16 10:50:00,
2013-05-16 07:06:00,63.4,61.0,29.82,SW,236,1.0,4.0,91,0.00,,,0.35,weatherlink.com 1.10,2013-05-16 11:06:00,
2013-05-16 07:21:00,63.5,61.0,29.82,SW,233,1.0,4.0,91,0.00,,,0.35,weatherlink.com 1.10,2013-05-16 11:21:00,
2013-05-16 07:36:00,63.8,61.0,29.82,West,264,0.0,4.0,91,0.00,,,0.35,weatherlink.com 1.10,2013-05-16 11:36:00,
2013-05-16 07:51:00,64.1,62.0,29.83,WNW,298,4.0,4.0,91,0.00,,,0.35,weatherlink.com 1.10,2013-05-16 11:51:00,
2013-05-16 08:06:00,64.6,61.0,29.83,WNW,285,3.0,6.0,89,0.00,,,0.35,weatherlink.com 1.10,2013-05-16 12:06:00,
2013-05-16 08:21:00,65.1,62.0,29.83,WNW,287,4.0,6.0,88,0.00,,,0.35,weatherlink.com 1.10,2013-05-16 12:21:00,
2013-05-16 08:36:00,65.6,61.0,29.83,West,278,5.0,8.0,86,0.00,,,0.35,weatherlink.com 1.10,2013-05-16 12:36:00,
2013-05-16 08:51:00,65.8,62.0,29.83,West,278,3.0,9.0,86,0.00,,,0.35,weatherlink.com 1.10,2013-05-16 12:51:00,
2013-05-16 09:06:00,66.4,62.0,29.84,West,271,3.0,7.0,84,0.00,,,0.35,weatherlink.com 1.10,2013-05-16 13:06:00,
2013-05-16 09:21:00,66.8,61.0,29.84,West,276,6.0,11.0,82,0.00,,,0.35,weatherlink.com 1.10,2013-05-16 13:21:00,
2013-05-16 09:36:00,67.0,61.0,29.85,West,269,4.0,10.0,81,0.00,,,0.35,weatherlink.com 1.10,2013-05-16 13:36:00,
2013-05-16 09:51:00,67.1,61.0,29.85,West,269,5.0,9.0,81,0.00,,,0.35,weatherlink.com 1.10,2013-05-16 13:51:00,
2013-05-16 10:06:00,67.4,61.0,29.84,West,273,4.0,10.0,80,0.00,,,0.35,weatherlink.com 1.10,2013-05-16 14:06:00,
2013-05-16 10:21:00,67.8,61.0,29.84,West,271,4.0,9.0,78,0.00,,,0.35,weatherlink.com 1.10,2013-05-16 14:21:00,
2013-05-16 10:36:00,69.0,60.0,29.84,WNW,284,6.0,8.0,73,0.00,,,0.35,weatherlink.com 1.10,2013-05-16 14:36:00,
2013-05-16 10:51:00,69.4,60.0,29.85,West,281,6.0,7.0,71,0.00,,,0.35,weatherlink.com 1.10,2013-05-16 14:51:00,
2013-05-16 11:06:00,70.4,61.0,29.86,West,265,2.0,6.0,71,0.00,,,0.35,weatherlink.com 1.10,2013-05-16 15:06:00,
2013-05-16 11:21:00,71.1,59.0,29.86,WNW,286,3.0,9.0,66,0.00,,,0.35,weatherlink.com 1.10,2013-05-16 15:21:00,
2013-05-16 11:36:00,71.6,59.0,29.86,West,262,5.0,9.0,65,0.00,,,0.35,weatherlink.com 1.10,2013-05-16 15:36:00,
2013-05-16 12:06:00,72.8,56.0,29.86,West,276,6.0,8.0,55,0.00,,,0.35,weatherlink.com 1.10,2013-05-16 16:06:00,
2013-05-16 12:21:00,73.3,53.0,29.86,WSW,252,2.0,9.0,50,0.00,,,0.35,weatherlink.com 1.10,2013-05-16 16:21:00,
2013-05-16 12:36:00,74.0,54.0,29.85,West,270,3.0,8.0,49,0.00,,,0.35,weatherlink.com 1.10,2013-05-16 16:36:00,
2013-05-16 12:51:00,74.8,50.0,29.85,SSW,193,3.0,9.0,42,0.00,,,0.35,weatherlink.com 1.10,2013-05-16 16:51:00,
2013-05-16 13:21:00,75.3,48.0,29.85,West,266,3.0,11.0,38,0.00,,,0.35,weatherlink.com 1.10,2013-05-16 17:21:00,
2013-05-16 13:36:00,75.2,45.0,29.85,West,271,4.0,8.0,34,0.00,,,0.35,weatherlink.com 1.10,2013-05-16 17:36:00,
2013-05-16 13:51:00,75.6,48.0,29.85,WNW,291,3.0,9.0,38,0.00,,,0.35,weatherlink.com 1.10,2013-05-16 17:51:00,
2013-05-16 14:06:00,75.4,47.0,29.86,WNW,284,3.0,7.0,36,0.00,,,0.35,weatherlink.com 1.10,2013-05-16 18:06:00,
2013-05-16 14:21:00,74.5,46.0,29.86,West,262,4.0,10.0,37,0.00,,,0.35,weatherlink.com 1.10,2013-05-16 18:21:00,
2013-05-16 14:36:00,74.2,47.0,29.86,WNW,284,3.0,9.0,38,0.00,,,0.35,weatherlink.com 1.10,2013-05-16 18:36:00,
2013-05-16 14:51:00,75.3,47.0,29.86,West,272,4.0,8.0,37,0.00,,,0.35,weatherlink.com 1.10,2013-05-16 18:51:00,
2013-05-16 15:06:00,76.1,47.0,29.86,West,276,4.0,9.0,36,0.00,,,0.35,weatherlink.com 1.10,2013-05-16 19:06:00,
2013-05-16 15:21:00,75.9,46.0,29.85,NW,312,4.0,9.0,35,0.00,,,0.35,weatherlink.com 1.10,2013-05-16 19:21:00,
2013-05-16 15:37:00,76.5,48.0,29.85,West,281,6.0,9.0,36,0.00,,,0.35,weatherlink.com 1.10,2013-05-16 19:37:00,
2013-05-16 15:52:00,76.8,47.0,29.85,WSW,257,3.0,11.0,35,0.00,,,0.35,weatherlink.com 1.10,2013-05-16 19:52:00,
2013-05-16 16:06:00,77.3,47.0,29.84,West,278,6.0,11.0,34,0.00,,,0.35,weatherlink.com 1.10,2013-05-16 20:06:00,
2013-05-16 16:22:00,77.4,46.0,29.85,West,281,6.0,14.0,33,0.00,,,0.35,weatherlink.com 1.10,2013-05-16 20:22:00,
2013-05-16 16:37:00,77.4,48.0,29.85,WSW,252,8.0,10.0,35,0.00,,,0.35,weatherlink.com 1.10,2013-05-16 20:37:00,
2013-05-16 16:52:00,77.6,48.0,29.85,WNW,293,7.0,10.0,35,0.00,,,0.35,weatherlink.com 1.10,2013-05-16 20:52:00,
2013-05-16 17:07:00,77.8,46.0,29.85,WSW,253,4.0,8.0,33,0.00,,,0.35,weatherlink.com 1.10,2013-05-16 21:07:00,
2013-05-16 17:22:00,77.9,46.0,29.85,WNW,283,9.0,11.0,32,0.00,,,0.35,weatherlink.com 1.10,2013-05-16 21:22:00,
2013-05-16 17:37:00,78.2,46.0,29.85,West,278,10.0,13.0,32,0.00,,,0.35,weatherlink.com 1.10,2013-05-16 21:37:00,
2013-05-16 17:52:00,78.4,48.0,29.86,SSW,207,3.0,8.0,34,0.00,,,0.35,weatherlink.com 1.10,2013-05-16 21:52:00,
2013-05-16 18:07:00,78.5,46.0,29.86,West,281,3.0,15.0,32,0.00,,,0.35,weatherlink.com 1.10,2013-05-16 22:07:00,
2013-05-16 18:22:00,77.7,47.0,29.86,WSW,250,10.0,13.0,34,0.00,,,0.35,weatherlink.com 1.10,2013-05-16 22:22:00,
2013-05-16 18:37:00,78.3,46.0,29.86,West,274,7.0,12.0,32,0.00,,,0.35,weatherlink.com 1.10,2013-05-16 22:37:00,
2013-05-16 18:52:00,77.5,47.0,29.86,West,274,5.0,11.0,34,0.00,,,0.35,weatherlink.com 1.10,2013-05-16 22:52:00,
2013-05-16 19:07:00,77.0,49.0,29.86,West,276,4.0,8.0,37,0.00,,,0.35,weatherlink.com 1.10,2013-05-16 23:07:00,
2013-05-16 19:22:00,75.7,50.0,29.86,West,271,3.0,5.0,41,0.00,,,0.35,weatherlink.com 1.10,2013-05-16 23:22:00,
2013-05-16 19:37:00,75.3,49.0,29.87,WNW,282,2.0,4.0,40,0.00,,,0.35,weatherlink.com 1.10,2013-05-16 23:37:00,
2013-05-16 19:52:00,75.1,49.0,29.88,WNW,283,1.0,2.0,40,0.00,,,0.35,weatherlink.com 1.10,2013-05-16 23:52:00,
2013-05-16 20:07:00,74.1,50.0,29.88,WSW,253,2.0,2.0,43,0.00,,,0.35,weatherlink.com 1.10,2013-05-17 00:07:00,
2013-05-16 20:22:00,72.0,50.0,29.89,West,274,1.0,2.0,46,0.00,,,0.35,weatherlink.com 1.10,2013-05-17 00:22:00,
2013-05-16 20:37:00,70.8,51.0,29.89,West,276,1.0,2.0,49,0.00,,,0.35,weatherlink.com 1.10,2013-05-17 00:37:00,
2013-05-16 20:52:00,70.7,51.0,29.90,WNW,289,1.0,2.0,50,0.00,,,0.35,weatherlink.com 1.10,2013-05-17 00:52:00,
2013-05-16 21:07:00,69.4,51.0,29.91,West,281,1.0,3.0,53,0.00,,,0.35,weatherlink.com 1.10,2013-05-17 01:07:00,
2013-05-16 21:22:00,67.9,53.0,29.91,WSW,256,1.0,2.0,59,0.00,,,0.35,weatherlink.com 1.10,2013-05-17 01:22:00,
2013-05-16 21:37:00,66.7,53.0,29.92,WSW,248,0.0,1.0,62,0.00,,,0.35,weatherlink.com 1.10,2013-05-17 01:37:00,
2013-05-16 21:52:00,64.9,54.0,29.93,WSW,248,0.0,0.0,69,0.00,,,0.35,weatherlink.com 1.10,2013-05-17 01:52:00,
2013-05-16 22:07:00,63.3,54.0,29.93,WSW,248,0.0,0.0,71,0.00,,,0.35,weatherlink.com 1.10,2013-05-17 02:07:00,
2013-05-16 22:22:00,63.3,53.0,29.94,West,270,0.0,1.0,68,0.00,,,0.35,weatherlink.com 1.10,2013-05-17 02:22:00,
2013-05-16 22:37:00,63.0,54.0,29.94,WSW,243,0.0,1.0,73,0.00,,,0.35,weatherlink.com 1.10,2013-05-17 02:37:00,
2013-05-16 22:52:00,61.8,54.0,29.94,WSW,243,0.0,1.0,76,0.00,,,0.35,weatherlink.com 1.10,2013-05-17 02:52:00,
2013-05-16 23:07:00,61.0,54.0,29.95,East,101,0.0,2.0,78,0.00,,,0.35,weatherlink.com 1.10,2013-05-17 03:07:00,
2013-05-16 23:22:00,60.9,55.0,29.95,East,91,2.0,4.0,80,0.00,,,0.35,weatherlink.com 1.10,2013-05-17 03:22:00,
2013-05-16 23:37:00,61.0,54.0,29.95,East,94,0.0,2.0,78,0.00,,,0.00,weatherlink.com 1.10,2013-05-17 03:37:00,
2013-05-16 23:52:00,61.1,54.0,29.95,SW,234,0.0,1.0,78,0.00,,,0.00,weatherlink.com 1.10,2013-05-17 03:52:00,